Time;durP1;ratioP1;P1;durP2;ratioP2;P2;SDS_P1;SDS_P2;PMS_P1;PMS_P2;Temp;Humidity;BMP_temperature;BMP_pressure;BME280_temperature;BME280_humidity;BME280_pressure;Samples;Min_cycle;Max_cycle;Signal;HPM_P1;HPM_P2
2024/01/18 00:01:33;;;;;;;11.15;8.02;;;1.30;99.90;;;;;;5045853;28;20107;-75
2024/01/18 00:04:00;;;;;;;14.32;8.93;;;1.20;99.90;;;;;;5047563;28;20086;-75
2024/01/18 00:06:27;;;;;;;12.05;7.57;;;1.10;99.90;;;;;;5046921;28;20029;-75
2024/01/18 00:08:52;;;;;;;16.58;9.30;;;1.10;99.90;;;;;;5047566;28;20072;-75
2024/01/18 00:11:18;;;;;;;16.02;9.30;;;1.10;99.90;;;;;;5048817;28;20115;-74
2024/01/18 00:13:44;;;;;;;13.45;8.95;;;1.10;99.90;;;;;;5049501;28;20033;-75
2024/01/18 00:16:10;;;;;;;12.02;7.85;;;1.10;99.90;;;;;;5049295;28;20713;-75
2024/01/18 00:18:35;;;;;;;13.75;8.70;;;1.10;99.90;;;;;;5051949;28;20046;-75
2024/01/18 00:21:01;;;;;;;12.77;9.25;;;1.10;99.90;;;;;;5054667;28;20028;-75
2024/01/18 00:23:27;;;;;;;15.15;9.10;;;1.20;99.90;;;;;;5056433;28;20039;-75
2024/01/18 00:25:53;;;;;;;16.77;9.77;;;1.10;99.90;;;;;;5056522;28;20462;-75
2024/01/18 00:28:18;;;;;;;13.88;9.30;;;1.00;99.90;;;;;;5054327;28;20069;-75
2024/01/18 00:30:44;;;;;;;14.00;9.13;;;1.10;99.90;;;;;;5055840;28;20090;-74
2024/01/18 00:33:10;;;;;;;15.65;9.98;;;1.10;99.90;;;;;;5057078;28;20371;-75
2024/01/18 00:35:35;;;;;;;13.38;9.35;;;1.00;99.90;;;;;;5054178;28;20722;-75
2024/01/18 00:38:01;;;;;;;18.13;10.43;;;1.10;99.90;;;;;;5054827;28;20040;-76
2024/01/18 00:40:27;;;;;;;14.80;8.68;;;1.10;99.90;;;;;;5055375;28;20409;-75
2024/01/18 00:42:53;;;;;;;13.57;9.45;;;1.20;99.90;;;;;;5054426;28;20045;-75
2024/01/18 00:45:18;;;;;;;14.63;9.32;;;1.20;99.90;;;;;;5054624;28;20041;-75
2024/01/18 00:47:44;;;;;;;12.95;7.93;;;1.10;99.90;;;;;;5055723;28;20040;-75
2024/01/18 00:50:10;;;;;;;11.43;8.40;;;1.00;99.90;;;;;;5053898;28;20076;-75
2024/01/18 00:52:36;;;;;;;12.73;9.15;;;1.10;99.90;;;;;;5055858;28;20033;-75
2024/01/18 00:55:01;;;;;;;11.05;8.88;;;1.10;99.90;;;;;;5054671;28;20784;-75
2024/01/18 00:57:28;;;;;;;12.45;8.68;;;1.10;99.90;;;;;;5053102;28;20040;-75
2024/01/18 00:59:54;;;;;;;11.82;9.27;;;1.10;99.90;;;;;;5055759;28;20040;-76
2024/01/18 01:02:20;;;;;;;12.77;8.63;;;1.20;99.90;;;;;;5055609;28;20543;-75
2024/01/18 01:04:46;;;;;;;13.45;8.15;;;1.20;99.90;;;;;;5055128;28;20064;-75
2024/01/18 01:07:11;;;;;;;11.15;7.78;;;1.30;99.90;;;;;;5053424;28;20491;-75
2024/01/18 01:09:37;;;;;;;13.45;8.95;;;1.30;99.90;;;;;;5056461;28;20040;-75
2024/01/18 01:12:03;;;;;;;13.43;8.85;;;1.30;99.90;;;;;;5054780;28;20028;-75
2024/01/18 01:14:29;;;;;;;11.52;7.93;;;1.30;99.90;;;;;;5055523;28;20032;-75
2024/01/18 01:16:55;;;;;;;13.02;8.13;;;1.30;99.90;;;;;;5053652;28;20405;-75
2024/01/18 01:19:21;;;;;;;12.38;8.25;;;1.30;99.90;;;;;;5055522;28;20044;-75
2024/01/18 01:21:46;;;;;;;13.15;8.73;;;1.20;99.90;;;;;;5055413;28;20497;-75
2024/01/18 01:24:12;;;;;;;12.85;8.50;;;1.30;99.90;;;;;;5055256;28;20036;-75
2024/01/18 01:26:38;;;;;;;13.15;8.85;;;1.30;99.90;;;;;;5053346;28;21838;-76
2024/01/18 01:29:05;;;;;;;15.10;9.00;;;1.20;99.90;;;;;;5055419;28;20048;-76
2024/01/18 01:31:30;;;;;;;11.32;7.80;;;1.20;99.90;;;;;;5054921;28;20030;-75
2024/01/18 01:33:56;;;;;;;12.57;8.90;;;1.30;99.90;;;;;;5053893;28;20034;-75
2024/01/18 01:36:22;;;;;;;15.63;9.02;;;1.20;99.90;;;;;;5055016;28;20134;-75
2024/01/18 01:38:48;;;;;;;13.13;9.10;;;1.30;99.90;;;;;;5055840;28;20239;-75
2024/01/18 01:41:14;;;;;;;13.23;8.18;;;1.30;99.90;;;;;;5054356;28;20025;-75
2024/01/18 01:43:59;;;;;;;11.48;7.93;;;1.20;99.90;;;;;;5051857;28;20033;-75
2024/01/18 01:46:26;;;;;;;12.00;8.93;;;1.30;99.90;;;;;;5050132;28;20032;-75
2024/01/18 01:48:58;;;;;;;11.55;8.55;;;1.40;99.90;;;;;;5053885;28;20079;-75
2024/01/18 01:51:24;;;;;;;12.25;8.55;;;1.40;99.90;;;;;;5055492;28;20041;-75
2024/01/18 01:53:50;;;;;;;10.85;8.50;;;1.40;99.90;;;;;;5054799;28;20427;-75
2024/01/18 01:56:16;;;;;;;13.60;9.52;;;1.40;99.90;;;;;;5032265;28;20394;-75
2024/01/18 01:58:42;;;;;;;12.68;7.85;;;1.40;99.90;;;;;;5054631;28;20041;-75
2024/01/18 02:01:07;;;;;;;11.70;8.68;;;1.30;99.90;;;;;;5054096;28;20037;-75
2024/01/18 02:03:33;;;;;;;12.50;8.45;;;1.30;99.90;;;;;;5053064;28;20111;-75
2024/01/18 02:05:59;;;;;;;14.60;9.77;;;1.20;99.90;;;;;;5052996;28;20115;-75
2024/01/18 02:08:24;;;;;;;12.82;9.25;;;1.20;99.90;;;;;;5054488;28;21373;-75
2024/01/18 02:10:51;;;;;;;13.88;8.88;;;1.30;99.90;;;;;;5053683;28;20036;-75
2024/01/18 02:13:17;;;;;;;13.82;9.23;;;1.30;99.90;;;;;;5053898;28;20044;-75
2024/01/18 02:15:44;;;;;;;15.75;9.30;;;1.30;99.90;;;;;;5052584;28;20041;-75
2024/01/18 02:18:09;;;;;;;13.32;8.88;;;1.30;99.90;;;;;;5052180;28;20039;-75
2024/01/18 02:20:35;;;;;;;13.02;8.57;;;1.30;99.90;;;;;;5054672;28;20032;-75
2024/01/18 02:23:03;;;;;;;10.18;7.93;;;1.30;99.90;;;;;;5053326;28;20035;-75
2024/01/18 02:25:29;;;;;;;12.32;8.73;;;1.30;99.90;;;;;;5053045;28;20040;-75
2024/01/18 02:27:55;;;;;;;13.98;9.05;;;1.40;99.90;;;;;;5052525;28;20033;-75
2024/01/18 02:30:21;;;;;;;12.73;9.70;;;1.40;99.90;;;;;;5051907;28;20447;-75
2024/01/18 02:32:47;;;;;;;12.38;8.52;;;1.30;99.90;;;;;;5032961;28;20123;-75
2024/01/18 02:35:14;;;;;;;13.50;8.68;;;1.30;99.90;;;;;;5053544;28;20082;-75
2024/01/18 02:37:40;;;;;;;13.25;9.15;;;1.40;99.90;;;;;;5052020;28;20056;-75
2024/01/18 02:40:06;;;;;;;13.85;9.02;;;1.40;99.90;;;;;;5052597;28;20722;-75
2024/01/18 02:42:32;;;;;;;16.10;10.73;;;1.30;99.90;;;;;;5054437;28;20157;-75
2024/01/18 02:44:58;;;;;;;14.82;10.13;;;1.00;99.90;;;;;;5052523;28;20063;-75
2024/01/18 02:47:28;;;;;;;12.40;9.73;;;1.10;99.90;;;;;;5052882;28;20059;-75
2024/01/18 02:49:56;;;;;;;14.63;10.60;;;1.20;99.90;;;;;;5053815;28;20047;-75
2024/01/18 02:52:22;;;;;;;12.70;9.13;;;1.20;99.90;;;;;;5054340;28;20778;-75
2024/01/18 02:54:47;;;;;;;14.05;8.95;;;1.10;99.90;;;;;;5051093;28;20524;-75
2024/01/18 02:57:13;;;;;;;13.52;8.80;;;1.20;99.90;;;;;;5052845;28;20124;-75
2024/01/18 02:59:39;;;;;;;11.45;8.52;;;1.30;99.90;;;;;;5053731;28;20409;-75
2024/01/18 03:02:05;;;;;;;12.80;7.35;;;1.20;99.90;;;;;;5053857;28;20028;-75
2024/01/18 03:04:31;;;;;;;10.20;7.35;;;1.40;99.90;;;;;;5052193;28;20028;-75
2024/01/18 03:06:57;;;;;;;11.95;7.78;;;1.40;99.90;;;;;;5051483;28;20057;-75
2024/01/18 03:09:23;;;;;;;12.52;6.70;;;1.40;99.90;;;;;;5052556;28;20114;-75
2024/01/18 03:11:49;;;;;;;12.77;8.10;;;1.50;99.90;;;;;;5052345;28;20506;-75
2024/01/18 03:14:14;;;;;;;13.32;6.88;;;1.40;99.90;;;;;;5051410;28;20402;-75
2024/01/18 03:16:42;;;;;;;12.57;8.25;;;1.50;99.90;;;;;;5053389;28;20112;-75
2024/01/18 03:19:14;;;;;;;11.85;7.95;;;1.50;99.90;;;;;;5052750;28;20461;-75
2024/01/18 03:21:39;;;;;;;10.45;7.07;;;1.40;99.90;;;;;;5051011;28;20420;-75
2024/01/18 03:24:06;;;;;;;11.48;7.95;;;1.40;99.90;;;;;;5052649;28;20028;-75
2024/01/18 03:26:32;;;;;;;15.00;9.93;;;1.40;99.90;;;;;;5052804;28;20067;-75
2024/01/18 03:28:58;;;;;;;13.95;9.10;;;1.30;99.90;;;;;;5052168;28;20044;-75
2024/01/18 03:31:24;;;;;;;13.10;9.45;;;1.40;99.90;;;;;;5052837;28;20145;-75
2024/01/18 03:33:49;;;;;;;13.18;9.02;;;1.40;99.90;;;;;;5050763;28;20367;-75
2024/01/18 03:36:15;;;;;;;14.35;9.73;;;1.40;99.90;;;;;;5031384;28;20089;-74
2024/01/18 03:38:40;;;;;;;13.70;9.60;;;1.40;99.90;;;;;;5052545;28;20037;-75
2024/01/18 03:41:06;;;;;;;14.32;9.90;;;1.40;99.90;;;;;;5053039;28;20724;-75
2024/01/18 03:43:32;;;;;;;14.52;9.18;;;1.30;99.90;;;;;;5050637;28;20416;-75
2024/01/18 03:45:57;;;;;;;13.40;9.57;;;1.40;99.90;;;;;;5052360;28;20501;-75
2024/01/18 03:48:23;;;;;;;13.18;8.57;;;1.40;99.90;;;;;;5052274;28;20048;-74
2024/01/18 03:50:48;;;;;;;14.02;9.50;;;1.40;99.90;;;;;;5050744;28;20033;-75
2024/01/18 03:53:14;;;;;;;12.77;9.18;;;1.40;99.90;;;;;;5051738;28;20032;-75
2024/01/18 03:55:41;;;;;;;15.07;8.90;;;1.50;99.90;;;;;;5056649;28;20063;-75
2024/01/18 03:58:07;;;;;;;13.13;8.60;;;1.40;99.90;;;;;;5056878;28;20032;-75
2024/01/18 04:00:32;;;;;;;12.63;9.38;;;1.40;99.90;;;;;;5054863;28;20033;-75
2024/01/18 04:02:58;;;;;;;12.85;8.55;;;1.50;99.90;;;;;;5053776;28;20032;-75
2024/01/18 04:05:24;;;;;;;15.52;8.57;;;1.40;99.90;;;;;;5051044;28;20032;-75
2024/01/18 04:07:49;;;;;;;10.95;8.88;;;1.50;99.90;;;;;;5050845;28;20082;-75
2024/01/18 04:10:15;;;;;;;11.70;8.10;;;1.50;99.90;;;;;;5051034;28;20039;-76
2024/01/18 04:12:42;;;;;;;12.80;8.73;;;1.40;99.90;;;;;;5050853;28;20093;-76
2024/01/18 04:15:09;;;;;;;15.23;9.80;;;1.50;99.90;;;;;;5048142;28;20090;-75
2024/01/18 04:17:34;;;;;;;13.55;9.15;;;1.60;99.90;;;;;;5050043;28;20029;-75
2024/01/18 04:20:00;;;;;;;12.38;8.85;;;1.50;99.90;;;;;;5046253;28;20029;-75
2024/01/18 04:22:26;;;;;;;14.32;10.10;;;1.50;99.90;;;;;;5048811;28;20020;-75
2024/01/18 04:24:52;;;;;;;12.15;8.27;;;1.50;99.90;;;;;;5049756;28;20028;-75
2024/01/18 04:27:18;;;;;;;16.35;9.32;;;1.40;99.90;;;;;;5052391;28;20127;-75
2024/01/18 04:29:44;;;;;;;14.90;9.93;;;1.50;99.90;;;;;;5050803;28;20054;-75
2024/01/18 04:32:10;;;;;;;12.05;7.82;;;1.50;99.90;;;;;;5052213;28;20035;-75
2024/01/18 04:34:35;;;;;;;11.57;8.30;;;1.50;99.90;;;;;;5047474;28;20037;-75
2024/01/18 04:37:01;;;;;;;11.45;8.80;;;1.50;99.90;;;;;;5048946;28;20033;-76
2024/01/18 04:39:27;;;;;;;11.85;7.93;;;1.50;99.90;;;;;;5048075;28;20109;-76
2024/01/18 04:41:53;;;;;;;12.43;7.80;;;1.60;99.90;;;;;;5051466;28;20041;-75
2024/01/18 04:44:18;;;;;;;12.20;7.65;;;1.60;99.90;;;;;;5047261;28;20059;-75
2024/01/18 04:46:44;;;;;;;12.80;7.53;;;1.70;99.90;;;;;;5048255;28;20140;-75
2024/01/18 04:49:10;;;;;;;11.45;7.38;;;1.80;99.90;;;;;;5047658;28;20048;-75
2024/01/18 04:51:35;;;;;;;10.07;7.18;;;1.80;99.90;;;;;;5048409;28;20039;-75
2024/01/18 04:54:01;;;;;;;12.18;7.07;;;1.80;99.90;;;;;;5044972;28;20120;-75
2024/01/18 04:56:27;;;;;;;12.85;8.35;;;1.80;99.90;;;;;;5048798;28;20556;-75
2024/01/18 04:58:53;;;;;;;14.98;7.95;;;1.80;99.90;;;;;;5047983;28;20021;-75
2024/01/18 05:01:18;;;;;;;9.88;7.40;;;1.80;99.90;;;;;;5048732;28;20040;-75
2024/01/18 05:03:45;;;;;;;10.13;7.53;;;1.80;99.90;;;;;;5048554;28;20083;-75
2024/01/18 05:06:11;;;;;;;11.63;7.20;;;1.80;99.90;;;;;;5047853;28;20055;-75
2024/01/18 05:08:36;;;;;;;10.45;7.35;;;1.70;99.90;;;;;;5048040;28;20052;-75
2024/01/18 05:11:02;;;;;;;12.63;7.60;;;1.60;99.90;;;;;;5049640;28;20094;-75
2024/01/18 05:13:28;;;;;;;10.73;7.05;;;1.60;99.90;;;;;;5047139;28;20722;-75
2024/01/18 05:15:53;;;;;;;10.75;7.43;;;1.60;99.90;;;;;;5047952;28;20113;-75
2024/01/18 05:18:20;;;;;;;13.18;7.88;;;1.70;99.90;;;;;;5048615;28;20060;-75
2024/01/18 05:20:45;;;;;;;12.98;8.50;;;1.70;99.90;;;;;;5048111;28;20503;-76
2024/01/18 05:23:11;;;;;;;13.02;8.40;;;1.50;99.90;;;;;;5048425;28;20028;-75
2024/01/18 05:25:36;;;;;;;12.55;8.05;;;1.50;99.90;;;;;;5047989;28;20043;-74
2024/01/18 05:28:02;;;;;;;8.95;6.72;;;1.50;99.90;;;;;;5048628;28;20624;-75
2024/01/18 05:30:28;;;;;;;16.38;10.40;;;1.50;99.90;;;;;;5047162;28;20399;-75
2024/01/18 05:32:54;;;;;;;18.88;11.80;;;1.60;99.90;;;;;;5049285;28;21687;-75
2024/01/18 05:35:20;;;;;;;16.33;10.60;;;1.50;99.90;;;;;;5044968;28;20071;-75
2024/01/18 05:37:46;;;;;;;14.13;9.75;;;1.50;99.90;;;;;;5044473;28;20040;-76
2024/01/18 05:40:11;;;;;;;13.02;8.35;;;1.50;99.90;;;;;;5049915;28;20060;-76
2024/01/18 05:42:37;;;;;;;11.73;9.07;;;1.60;99.90;;;;;;5049176;28;20556;-75
2024/01/18 05:45:04;;;;;;;15.68;10.38;;;1.70;99.90;;;;;;5047539;28;20032;-75
2024/01/18 05:47:30;;;;;;;13.00;8.80;;;1.60;99.90;;;;;;5046294;28;20032;-75
2024/01/18 05:49:56;;;;;;;14.65;9.25;;;1.60;99.90;;;;;;5047246;28;20074;-76
2024/01/18 05:52:22;;;;;;;14.20;9.15;;;1.70;99.90;;;;;;5047149;28;20036;-76
2024/01/18 05:54:47;;;;;;;16.38;10.05;;;1.70;99.90;;;;;;5047608;28;20029;-75
2024/01/18 05:57:13;;;;;;;13.98;9.05;;;1.70;99.90;;;;;;5046625;28;20111;-75
2024/01/18 05:59:39;;;;;;;13.57;9.30;;;1.70;99.90;;;;;;5044586;28;20066;-76
2024/01/18 06:02:04;;;;;;;13.13;9.43;;;1.60;99.90;;;;;;5048526;28;20622;-76
2024/01/18 06:04:30;;;;;;;18.13;11.45;;;1.60;99.90;;;;;;5045056;28;20501;-75
2024/01/18 06:06:57;;;;;;;15.45;10.80;;;1.50;99.90;;;;;;5045743;28;20063;-75
2024/01/18 06:09:23;;;;;;;16.77;10.85;;;1.50;99.90;;;;;;5047258;28;21683;-75
2024/01/18 06:11:49;;;;;;;16.90;11.02;;;1.50;99.90;;;;;;5047571;28;20119;-76
2024/01/18 06:14:15;;;;;;;16.95;9.85;;;1.50;99.90;;;;;;5044536;28;20271;-75
2024/01/18 06:16:41;;;;;;;16.40;11.80;;;1.40;99.90;;;;;;5044248;28;20036;-75
2024/01/18 06:19:07;;;;;;;16.88;13.32;;;1.40;99.90;;;;;;5051320;28;20070;-75
2024/01/18 06:21:33;;;;;;;20.55;13.75;;;1.40;99.90;;;;;;5048184;28;20063;-74
2024/01/18 06:23:58;;;;;;;17.63;10.95;;;1.30;99.90;;;;;;5045839;28;20040;-74
2024/01/18 06:26:24;;;;;;;18.42;11.55;;;1.30;99.90;;;;;;5044433;28;20044;-73
2024/01/18 06:28:50;;;;;;;13.75;10.68;;;1.40;99.90;;;;;;5045167;28;20055;-74
2024/01/18 06:31:17;;;;;;;16.08;11.93;;;1.30;99.90;;;;;;5045846;28;20039;-74
2024/01/18 06:33:42;;;;;;;14.82;10.60;;;1.30;99.90;;;;;;5046199;28;20044;-74
2024/01/18 06:36:09;;;;;;;16.13;10.57;;;1.40;99.90;;;;;;5045775;28;20028;-73
2024/01/18 06:38:35;;;;;;;14.45;9.85;;;1.40;99.90;;;;;;5047345;28;20159;-74
2024/01/18 06:41:01;;;;;;;14.20;9.95;;;1.50;99.90;;;;;;5047943;28;20032;-74
2024/01/18 06:43:26;;;;;;;16.02;11.70;;;1.40;99.90;;;;;;5045806;28;20111;-74
2024/01/18 06:45:55;;;;;;;14.93;10.52;;;1.40;99.90;;;;;;5046119;28;20450;-74
2024/01/18 06:48:24;;;;;;;14.10;9.93;;;1.50;99.90;;;;;;5043469;28;20177;-74
2024/01/18 06:50:53;;;;;;;15.50;10.23;;;1.50;99.90;;;;;;5041721;28;20036;-74
2024/01/18 06:53:19;;;;;;;13.05;9.38;;;1.60;99.90;;;;;;5045645;28;20043;-74
2024/01/18 06:55:45;;;;;;;14.32;9.65;;;1.50;99.90;;;;;;5047551;28;20533;-74
2024/01/18 06:58:11;;;;;;;16.25;10.80;;;1.50;99.90;;;;;;5046685;28;20029;-74
2024/01/18 07:00:36;;;;;;;17.15;10.70;;;1.50;99.90;;;;;;5045236;28;20041;-74
2024/01/18 07:03:02;;;;;;;16.52;9.95;;;1.60;99.90;;;;;;5047002;28;20036;-74
2024/01/18 07:05:28;;;;;;;11.82;9.43;;;1.60;99.90;;;;;;5045423;28;20044;-74
2024/01/18 07:07:54;;;;;;;15.63;11.00;;;1.50;99.90;;;;;;5046111;28;20459;-74
2024/01/18 07:10:20;;;;;;;16.88;10.35;;;1.40;99.90;;;;;;5046080;28;20119;-74
2024/01/18 07:12:47;;;;;;;17.05;11.20;;;1.50;99.90;;;;;;5046980;28;20127;-74
2024/01/18 07:15:13;;;;;;;12.25;9.32;;;1.50;99.90;;;;;;5044893;28;20535;-73
2024/01/18 07:17:38;;;;;;;14.25;9.23;;;1.50;99.90;;;;;;5044536;28;20052;-75
2024/01/18 07:20:05;;;;;;;15.60;10.70;;;1.50;99.90;;;;;;5047288;28;20432;-73
2024/01/18 07:22:31;;;;;;;17.58;9.57;;;1.50;99.90;;;;;;5045309;28;20044;-73
2024/01/18 07:24:56;;;;;;;16.27;11.27;;;1.60;99.90;;;;;;5045019;28;20036;-73
2024/01/18 07:27:22;;;;;;;18.13;11.25;;;1.60;99.90;;;;;;5046653;28;20539;-73
2024/01/18 07:29:49;;;;;;;15.10;10.35;;;1.60;99.90;;;;;;5045236;28;20363;-73
2024/01/18 07:32:15;;;;;;;17.13;11.43;;;1.60;99.90;;;;;;5047481;28;20118;-74
2024/01/18 07:34:41;;;;;;;17.38;12.10;;;1.60;99.90;;;;;;5045935;28;20059;-74
2024/01/18 07:37:08;;;;;;;16.55;12.40;;;1.60;99.90;;;;;;5046535;28;20032;-73
2024/01/18 07:39:34;;;;;;;18.77;12.98;;;1.50;99.90;;;;;;5045026;28;20463;-72
2024/01/18 07:42:00;;;;;;;21.45;13.10;;;1.50;99.90;;;;;;5047134;28;20036;-72
2024/01/18 07:44:27;;;;;;;20.52;14.15;;;1.50;99.90;;;;;;5046881;28;20395;-72
2024/01/18 07:46:53;;;;;;;18.48;13.88;;;1.50;99.90;;;;;;5044269;28;20033;-72
2024/01/18 07:49:20;;;;;;;21.17;13.85;;;1.60;99.90;;;;;;5045191;28;20150;-72
2024/01/18 07:51:46;;;;;;;18.45;13.25;;;1.70;99.90;;;;;;5046631;28;20064;-72
2024/01/18 07:54:13;;;;;;;19.73;13.20;;;1.60;99.90;;;;;;5044732;28;20142;-72
2024/01/18 07:56:39;;;;;;;19.88;13.30;;;1.60;99.90;;;;;;5043903;28;20060;-72
2024/01/18 07:59:04;;;;;;;17.88;12.45;;;1.70;99.90;;;;;;5046138;28;20123;-72
2024/01/18 08:01:30;;;;;;;20.73;13.65;;;1.80;99.90;;;;;;5025419;28;20040;-72
2024/01/18 08:03:56;;;;;;;17.40;12.70;;;1.80;99.90;;;;;;5046817;28;20144;-73
2024/01/18 08:06:21;;;;;;;19.50;14.18;;;1.70;99.90;;;;;;5043348;28;20726;-73
2024/01/18 08:08:47;;;;;;;19.65;13.57;;;1.70;99.90;;;;;;5045677;28;20048;-72
2024/01/18 08:11:13;;;;;;;19.77;13.73;;;1.80;99.90;;;;;;5046379;28;20696;-73
2024/01/18 08:13:41;;;;;;;21.40;14.00;;;1.90;99.90;;;;;;5045045;28;20042;-73
2024/01/18 08:16:08;;;;;;;20.60;13.95;;;1.90;99.90;;;;;;5044944;28;20055;-72
2024/01/18 08:18:35;;;;;;;21.35;13.77;;;2.00;99.90;;;;;;5047307;28;20036;-72
2024/01/18 08:21:00;;;;;;;20.77;13.73;;;1.90;99.90;;;;;;5044378;28;20121;-73
2024/01/18 08:23:26;;;;;;;17.60;12.68;;;1.90;99.90;;;;;;5043197;28;20036;-74
2024/01/18 08:25:52;;;;;;;17.77;11.98;;;1.90;99.90;;;;;;5045715;28;20689;-75
2024/01/18 08:28:18;;;;;;;18.27;11.65;;;1.90;99.90;;;;;;5036957;28;20040;-73
2024/01/18 08:30:44;;;;;;;15.73;10.88;;;1.90;99.90;;;;;;5043756;28;20039;-73
2024/01/18 08:33:10;;;;;;;17.05;12.10;;;1.90;99.90;;;;;;5043509;28;20608;-74
2024/01/18 08:35:37;;;;;;;19.90;12.20;;;1.90;99.90;;;;;;5043019;28;20028;-73
2024/01/18 08:38:03;;;;;;;17.35;12.98;;;1.80;99.90;;;;;;5023519;28;21022;-74
2024/01/18 08:40:29;;;;;;;21.98;13.75;;;1.80;99.90;;;;;;5045699;28;20048;-73
2024/01/18 08:42:56;;;;;;;22.23;14.82;;;1.80;99.90;;;;;;5047180;28;20041;-73
2024/01/18 08:45:22;;;;;;;17.90;12.35;;;1.80;99.90;;;;;;5045618;28;20025;-73
2024/01/18 08:47:48;;;;;;;18.42;12.60;;;1.90;99.90;;;;;;5047974;28;20650;-73
2024/01/18 08:50:17;;;;;;;18.92;12.05;;;1.90;99.90;;;;;;5048769;28;20036;-73
2024/01/18 08:52:43;;;;;;;17.15;11.95;;;1.90;99.90;;;;;;5050208;28;20036;-73
2024/01/18 08:55:09;;;;;;;21.38;14.35;;;1.90;99.90;;;;;;5052844;28;20029;-73
2024/01/18 08:57:35;;;;;;;18.80;12.88;;;1.90;99.90;;;;;;5052182;28;20098;-73
2024/01/18 09:00:01;;;;;;;25.15;14.85;;;1.90;99.90;;;;;;5051424;28;20109;-73
2024/01/18 09:02:27;;;;;;;21.13;15.40;;;1.90;99.90;;;;;;5048940;28;20574;-73
2024/01/18 09:04:53;;;;;;;19.40;14.07;;;1.90;99.90;;;;;;5052717;28;20103;-73
2024/01/18 09:07:19;;;;;;;19.83;13.30;;;1.90;99.90;;;;;;5052624;28;20044;-74
2024/01/18 09:09:45;;;;;;;19.25;13.73;;;2.00;99.90;;;;;;5051867;28;20036;-73
2024/01/18 09:12:11;;;;;;;19.95;13.73;;;2.00;99.90;;;;;;5052356;28;20029;-73
2024/01/18 09:14:37;;;;;;;17.05;11.95;;;2.00;99.90;;;;;;5052133;28;20028;-73
2024/01/18 09:17:03;;;;;;;15.45;11.30;;;2.10;99.90;;;;;;5051132;28;20024;-73
2024/01/18 09:19:30;;;;;;;16.88;11.48;;;2.10;99.90;;;;;;5052320;28;20035;-73
2024/01/18 09:21:56;;;;;;;13.30;9.88;;;1.90;99.90;;;;;;5054893;28;20111;-73
2024/01/18 09:24:23;;;;;;;14.18;9.68;;;1.80;99.90;;;;;;5055637;28;20056;-72
2024/01/18 09:26:48;;;;;;;13.18;9.30;;;2.00;99.90;;;;;;5055257;28;20060;-73
2024/01/18 09:29:14;;;;;;;16.55;10.35;;;2.00;99.90;;;;;;5054589;28;20107;-73
2024/01/18 09:31:40;;;;;;;22.05;13.57;;;1.90;99.90;;;;;;5054659;28;20028;-73
2024/01/18 09:34:06;;;;;;;20.98;13.13;;;1.80;99.90;;;;;;5055802;28;20028;-73
2024/01/18 09:36:31;;;;;;;17.75;11.88;;;1.90;99.90;;;;;;5054856;28;20583;-73
2024/01/18 09:38:57;;;;;;;15.98;10.85;;;2.00;99.90;;;;;;5053996;28;20057;-73
2024/01/18 09:41:26;;;;;;;15.68;11.00;;;2.00;99.90;;;;;;5055149;28;20071;-73
2024/01/18 09:43:57;;;;;;;12.93;9.27;;;2.00;99.90;;;;;;5054071;28;20032;-73
2024/01/18 09:46:23;;;;;;;14.18;9.80;;;1.90;99.90;;;;;;5054867;28;20098;-73
2024/01/18 09:48:49;;;;;;;14.70;9.77;;;1.80;99.90;;;;;;5055019;28;20479;-73
2024/01/18 09:51:15;;;;;;;14.68;10.25;;;1.70;99.90;;;;;;5053770;28;20029;-73
2024/01/18 09:53:48;;;;;;;15.23;9.55;;;1.90;99.90;;;;;;5046616;28;20024;-73
2024/01/18 09:56:25;;;;;;;17.70;10.82;;;1.90;99.90;;;;;;5048223;28;20072;-73
2024/01/18 09:58:54;;;;;;;18.88;11.15;;;2.00;99.90;;;;;;5046453;28;21771;-73
2024/01/18 10:01:21;;;;;;;17.13;12.00;;;2.00;99.90;;;;;;5042957;28;20036;-73
2024/01/18 10:03:48;;;;;;;14.77;10.95;;;1.90;99.90;;;;;;5045345;28;20513;-73
2024/01/18 10:06:18;;;;;;;15.10;11.32;;;1.90;99.90;;;;;;5045843;28;20469;-72
2024/01/18 10:08:48;;;;;;;17.70;10.68;;;2.00;99.90;;;;;;5045847;28;20044;-72
2024/01/18 10:11:14;;;;;;;16.27;10.73;;;2.10;99.90;;;;;;5046859;28;20044;-73
2024/01/18 10:13:56;;;;;;;17.20;10.98;;;2.00;99.90;;;;;;5047623;28;20028;-73
2024/01/18 10:16:32;;;;;;;16.60;11.20;;;1.90;99.90;;;;;;5046074;28;21372;-73
2024/01/18 10:19:03;;;;;;;18.90;11.18;;;1.90;99.90;;;;;;5044877;28;20036;-73
2024/01/18 10:21:31;;;;;;;17.80;10.60;;;1.90;99.90;;;;;;5044879;28;20036;-73
2024/01/18 10:23:57;;;;;;;16.92;10.52;;;2.00;99.90;;;;;;5043762;28;20521;-73
2024/01/18 10:26:27;;;;;;;14.98;9.80;;;2.00;99.90;;;;;;5046384;28;20040;-73
2024/01/18 10:28:53;;;;;;;15.07;10.23;;;2.00;99.90;;;;;;5045471;28;21772;-73
2024/01/18 10:31:19;;;;;;;16.05;10.32;;;2.10;99.90;;;;;;5046296;28;20029;-73
2024/01/18 10:33:46;;;;;;;14.73;10.63;;;2.20;99.90;;;;;;5046953;28;20449;-73
2024/01/18 10:36:12;;;;;;;13.13;9.43;;;2.10;99.90;;;;;;5045211;28;20036;-73
2024/01/18 10:38:39;;;;;;;16.77;10.95;;;2.10;99.90;;;;;;5046204;28;20106;-73
2024/01/18 10:41:07;;;;;;;18.75;10.65;;;2.20;99.90;;;;;;5049234;28;20079;-73
2024/01/18 10:43:34;;;;;;;13.43;9.43;;;2.20;99.90;;;;;;5047423;28;20029;-73
2024/01/18 10:46:00;;;;;;;14.90;10.10;;;2.30;99.90;;;;;;5044549;28;20032;-73
2024/01/18 10:48:26;;;;;;;14.30;10.23;;;2.40;99.90;;;;;;5046334;28;20131;-73
2024/01/18 10:50:56;;;;;;;14.52;9.55;;;2.50;99.90;;;;;;5044704;28;20016;-73
2024/01/18 10:53:26;;;;;;;14.82;9.80;;;2.70;99.90;;;;;;5046139;28;20043;-74
2024/01/18 10:55:52;;;;;;;19.35;13.60;;;2.70;99.90;;;;;;5046643;28;20040;-73
2024/01/18 10:58:21;;;;;;;22.35;15.27;;;2.70;99.90;;;;;;5043662;28;20059;-74
2024/01/18 11:00:47;;;;;;;23.73;16.02;;;2.80;99.90;;;;;;5042540;28;21801;-74
2024/01/18 11:03:17;;;;;;;25.08;16.52;;;2.80;99.90;;;;;;5045616;28;20031;-73
2024/01/18 11:05:45;;;;;;;19.92;13.82;;;2.90;99.90;;;;;;5046074;28;20028;-74
2024/01/18 11:08:13;;;;;;;17.55;13.57;;;3.10;99.90;;;;;;5044945;28;20055;-73
2024/01/18 11:10:40;;;;;;;18.95;13.05;;;3.00;99.90;;;;;;5045091;28;20043;-73
2024/01/18 11:13:07;;;;;;;18.02;11.98;;;3.10;99.90;;;;;;5046522;28;20061;-73
2024/01/18 11:15:34;;;;;;;17.13;11.38;;;3.20;99.90;;;;;;5045627;28;20047;-74
2024/01/18 11:18:11;;;;;;;17.10;11.90;;;3.20;99.90;;;;;;5044014;28;20101;-73
2024/01/18 11:21:04;;;;;;;16.75;10.88;;;3.30;99.90;;;;;;5045687;28;20024;-74
2024/01/18 11:23:39;;;;;;;21.02;12.75;;;3.50;99.90;;;;;;5043280;28;20043;-74
2024/01/18 11:26:07;;;;;;;22.48;13.77;;;3.70;99.90;;;;;;5044743;28;20040;-74
2024/01/18 11:28:34;;;;;;;25.95;15.10;;;3.60;99.90;;;;;;5045442;28;20048;-74
2024/01/18 11:31:00;;;;;;;31.05;15.77;;;3.70;99.90;;;;;;5044005;28;20047;-74
2024/01/18 11:33:26;;;;;;;152.25;65.25;;;3.80;99.90;;;;;;5044539;28;20048;-74
2024/01/18 11:35:53;;;;;;;131.77;59.42;;;3.90;99.90;;;;;;5045813;28;20292;-74
2024/01/18 11:38:28;;;;;;;62.88;34.80;;;4.00;99.90;;;;;;5043894;28;20025;-74
2024/01/18 11:40:58;;;;;;;46.10;25.98;;;3.90;99.90;;;;;;5024586;28;20088;-74
2024/01/18 11:43:54;;;;;;;28.67;18.05;;;3.90;99.90;;;;;;5023534;28;20033;-73
2024/01/18 11:46:40;;;;;;;26.35;15.85;;;3.90;99.90;;;;;;5023974;28;20048;-73
2024/01/18 11:49:09;;;;;;;21.73;14.05;;;4.00;99.90;;;;;;5024130;28;20681;-73
2024/01/18 11:51:35;;;;;;;20.27;12.93;;;4.10;99.90;;;;;;5025349;28;20300;-73
2024/01/18 11:54:02;;;;;;;19.33;13.32;;;4.10;99.90;;;;;;5027058;28;20033;-73
2024/01/18 11:56:28;;;;;;;19.35;13.65;;;4.10;99.90;;;;;;5025508;28;20506;-73
2024/01/18 11:58:58;;;;;;;19.55;13.80;;;4.20;99.90;;;;;;5026682;28;20596;-73
2024/01/18 12:01:25;;;;;;;22.65;14.55;;;4.20;99.90;;;;;;5025375;28;20035;-73
2024/01/18 12:03:52;;;;;;;21.55;15.05;;;4.20;99.90;;;;;;5024242;28;20034;-73
2024/01/18 12:06:19;;;;;;;21.67;15.57;;;4.20;99.90;;;;;;5025212;28;20029;-73
2024/01/18 12:08:45;;;;;;;21.60;16.38;;;4.20;99.90;;;;;;5025798;28;20104;-73
2024/01/18 12:11:12;;;;;;;23.17;17.13;;;4.10;99.90;;;;;;5025743;28;20072;-73
2024/01/18 12:13:38;;;;;;;21.02;15.73;;;4.20;99.90;;;;;;5025830;28;20128;-73
2024/01/18 12:16:05;;;;;;;23.98;16.27;;;4.30;99.90;;;;;;5030567;28;20033;-73
2024/01/18 12:18:43;;;;;;;25.63;17.20;;;4.40;99.90;;;;;;5029660;28;20029;-73
2024/01/18 12:21:09;;;;;;;23.80;16.83;;;4.40;99.90;;;;;;5029114;28;20119;-73
2024/01/18 12:23:35;;;;;;;21.70;15.65;;;4.50;99.90;;;;;;5028704;28;20033;-73
2024/01/18 12:26:05;;;;;;;20.33;14.35;;;4.50;99.90;;;;;;5029665;28;20373;-73
2024/01/18 12:28:30;;;;;;;24.10;16.70;;;4.70;99.90;;;;;;5029444;28;20329;-73
2024/01/18 12:31:02;;;;;;;25.00;17.48;;;4.40;99.90;;;;;;5029556;28;20033;-73
2024/01/18 12:33:31;;;;;;;22.70;16.95;;;4.40;99.90;;;;;;5029736;28;20037;-73
2024/01/18 12:35:57;;;;;;;25.67;19.50;;;4.40;99.90;;;;;;5029557;28;20021;-73
2024/01/18 12:38:23;;;;;;;25.33;16.33;;;4.30;99.90;;;;;;5029164;28;20041;-73
2024/01/18 12:40:49;;;;;;;22.02;16.80;;;4.40;99.90;;;;;;5028501;28;20113;-73